NSTUNIUE

Guest
Details From NSTU - Pago Pago
To NIUE - Niue
Flight Number -
Tags generated
Created
Modified
Stats Distance 290 nm / 536 km
Max Altitude 17,100 ft / 5,212 m
Waypoints 5
Social Downloads 6
Likes 0
Share VATSIM

Download

Looking for another format? Having issues loading an existing format? Contact us
Advertisement - Login to hide

Notes

Basic altitude profile: - Ascent Rate: 2500ft/min - Ascent Speed: 250kts - Cruise Altitude: 35000ft - Cruise Speed: 420kts - Descent Rate: 1500ft/min - Descent Speed: 250kts Options: - Use NATs: yes - Use PACOTS: yes - Use low airways: yes - Use high airways: yes

Route

NSTU TUTNB A212 NU NIUE

ID Type Via Altitude Latitude Longitude Leg Dist Tot Dist Heading (true) Name
O NSTU APT - 0 ft / 0 m -14.33006˚ -170.71024˚ - 0 nm - Pago Pago
TUTNB FIX - 100 ft / 30 m -14.33222˚ -170.71944˚ 0 nm 0 nm 256° / 256° -
GUGET FIX A212 (AWY-LO) 17,100 ft / 5,212 m -17.76883˚ -170.14214˚ 209 nm 209 nm 171° / 171° -
NU NDB A212 (AWY-LO) 4,000 ft / 1,219 m -19.07364˚ -169.91714˚ 79 nm 289 nm 171° / 171° NIUE NDB
O NIUE APT - 0 ft / 0 m -19.07901˚ -169.92577˚ 0 nm 289 nm 237° / 237° Niue

Altitude Profile

Advertisement - Login to hide

Weather


0- 5 10 15 20 25 30 35+ Temperature / ° C

Clouds and Precipitation
Forecast for 2017-12-12 12:00 UTC. Updated an hour ago

Ground ~20,000 ft ~40,000 ft Winds

NSTU

Details ICAO NSTU (PPG)
Name Pago Pago
Region American Samoa
Timezone Unknown (UTC+0.0)
Stats Elevation 0 ft / 0 m (AMSL)
Location -14.330060° -170.710244°
Runways 2
Magnetic Variation 11.772° E

METAR

NSTU 120751Z 00000KT 10SM FEW021 SCT100 27/25 A2978 RMK SLP086 T02650248

Decode

TAF

TAF NSTU 120532Z 1206/1306 VRB05KT P6SM VCSH SCT020 BKN040 BKN100

Decode

Departure Runways

ID Width Length Bearing (true) Bearing (mag) Surface Threshold Offset Overrun Length
05 151 ft / 46 m 10,007 ft / 3,050 m 60.00° 48.23° Asphalt 1,001 ft / 305 m 413 ft / 126 m
08 98 ft / 30 m 3,907 ft / 1,191 m 89.93° 78.16° Asphalt 0 ft / 0 m 371 ft / 113 m
23 151 ft / 46 m 10,007 ft / 3,050 m 240.00° 228.23° Asphalt 784 ft / 239 m 226 ft / 69 m
26 98 ft / 30 m 3,907 ft / 1,191 m 269.93° 258.16° Asphalt 112 ft / 34 m 0 ft / 0 m

NIUE

Details ICAO NIUE (IUE)
Name Niue
Region Niue
Timezone Pacific/Niue (UTC-11.0)
Stats Elevation 209 ft / 64 m (AMSL)
Location -19.079010° -169.925766°
Runways 1
Magnetic Variation 13.078° E

METAR

NIUE 120800Z AUTO 14006KT //// ////// 24/22 Q1010.0

Decode

TAF

TAF NIUE 120529Z 1206/1306 17008KT 9999 -SHRA SCT017 BKN030

Decode

Destination Runways

ID Width Length Bearing (true) Bearing (mag) Surface Threshold Offset Overrun Length
10 148 ft / 45 m 7,644 ft / 2,330 m 109.90° 96.82° Asphalt 0 ft / 0 m 0 ft / 0 m
28 148 ft / 45 m 7,644 ft / 2,330 m 289.90° 276.82° Asphalt 0 ft / 0 m 0 ft / 0 m

Popular Alternatives